sensor_id;sensor_type;location;lat;lon;timestamp;P1;durP1;ratioP1;P2;durP2;ratioP2
7989;SDS011;4040;42.848;23.034;2023-04-28T00:03:30;3.00;;;2.30;;
7989;SDS011;4040;42.848;23.034;2023-04-28T00:13:41;4.60;;;2.70;;
7989;SDS011;4040;42.848;23.034;2023-04-28T00:19:30;3.27;;;2.87;;
7989;SDS011;4040;42.848;23.034;2023-04-28T00:25:19;6.50;;;3.17;;
7989;SDS011;4040;42.848;23.034;2023-04-28T00:31:12;4.53;;;2.53;;
7989;SDS011;4040;42.848;23.034;2023-04-28T00:37:02;4.17;;;2.70;;
7989;SDS011;4040;42.848;23.034;2023-04-28T00:43:01;3.87;;;2.77;;
7989;SDS011;4040;42.848;23.034;2023-04-28T00:48:51;4.50;;;2.47;;
7989;SDS011;4040;42.848;23.034;2023-04-28T00:54:40;6.23;;;2.50;;
7989;SDS011;4040;42.848;23.034;2023-04-28T01:00:29;6.10;;;3.33;;
7989;SDS011;4040;42.848;23.034;2023-04-28T01:06:20;4.23;;;2.77;;
7989;SDS011;4040;42.848;23.034;2023-04-28T01:16:32;6.53;;;3.47;;
7989;SDS011;4040;42.848;23.034;2023-04-28T01:22:24;3.20;;;2.90;;
7989;SDS011;4040;42.848;23.034;2023-04-28T01:28:14;2.37;;;2.17;;
7989;SDS011;4040;42.848;23.034;2023-04-28T01:34:03;5.53;;;3.63;;
7989;SDS011;4040;42.848;23.034;2023-04-28T01:39:52;10.17;;;6.00;;
7989;SDS011;4040;42.848;23.034;2023-04-28T01:45:42;10.60;;;5.23;;
7989;SDS011;4040;42.848;23.034;2023-04-28T01:51:31;6.07;;;4.50;;
7989;SDS011;4040;42.848;23.034;2023-04-28T01:57:20;6.97;;;3.83;;
7989;SDS011;4040;42.848;23.034;2023-04-28T02:03:10;3.53;;;2.70;;
7989;SDS011;4040;42.848;23.034;2023-04-28T02:08:59;3.97;;;2.90;;
7989;SDS011;4040;42.848;23.034;2023-04-28T02:19:11;7.20;;;3.47;;
7989;SDS011;4040;42.848;23.034;2023-04-28T02:24:59;6.00;;;5.50;;
7989;SDS011;4040;42.848;23.034;2023-04-28T02:30:48;5.10;;;3.57;;
7989;SDS011;4040;42.848;23.034;2023-04-28T02:36:39;5.67;;;4.13;;
7989;SDS011;4040;42.848;23.034;2023-04-28T02:42:27;11.10;;;4.53;;
7989;SDS011;4040;42.848;23.034;2023-04-28T02:48:16;3.97;;;3.20;;
7989;SDS011;4040;42.848;23.034;2023-04-28T02:54:07;15.40;;;4.10;;
7989;SDS011;4040;42.848;23.034;2023-04-28T02:59:55;3.10;;;2.80;;
7989;SDS011;4040;42.848;23.034;2023-04-28T03:05:44;3.60;;;2.93;;
7989;SDS011;4040;42.848;23.034;2023-04-28T03:11:34;4.67;;;3.30;;
7989;SDS011;4040;42.848;23.034;2023-04-28T03:21:45;6.50;;;3.47;;
7989;SDS011;4040;42.848;23.034;2023-04-28T03:27:36;4.13;;;2.90;;
7989;SDS011;4040;42.848;23.034;2023-04-28T03:33:24;6.37;;;3.47;;
7989;SDS011;4040;42.848;23.034;2023-04-28T03:39:12;6.63;;;3.67;;
7989;SDS011;4040;42.848;23.034;2023-04-28T03:45:03;5.77;;;4.03;;
7989;SDS011;4040;42.848;23.034;2023-04-28T03:50:51;8.23;;;3.90;;
7989;SDS011;4040;42.848;23.034;2023-04-28T03:56:40;4.93;;;3.40;;
7989;SDS011;4040;42.848;23.034;2023-04-28T04:02:30;4.93;;;3.87;;
7989;SDS011;4040;42.848;23.034;2023-04-28T04:08:19;8.30;;;3.80;;
7989;SDS011;4040;42.848;23.034;2023-04-28T04:14:08;4.23;;;3.27;;
7989;SDS011;4040;42.848;23.034;2023-04-28T04:24:20;5.40;;;3.20;;
7989;SDS011;4040;42.848;23.034;2023-04-28T04:30:09;4.67;;;3.57;;
7989;SDS011;4040;42.848;23.034;2023-04-28T04:35:58;8.40;;;3.73;;
7989;SDS011;4040;42.848;23.034;2023-04-28T04:41:48;5.77;;;4.13;;
7989;SDS011;4040;42.848;23.034;2023-04-28T04:47:37;6.73;;;4.33;;
7989;SDS011;4040;42.848;23.034;2023-04-28T04:53:26;3.83;;;2.77;;
7989;SDS011;4040;42.848;23.034;2023-04-28T04:59:16;6.23;;;3.77;;
7989;SDS011;4040;42.848;23.034;2023-04-28T05:05:05;5.57;;;2.83;;
7989;SDS011;4040;42.848;23.034;2023-04-28T05:10:54;3.20;;;2.43;;
7989;SDS011;4040;42.848;23.034;2023-04-28T05:16:45;3.27;;;2.30;;
7989;SDS011;4040;42.848;23.034;2023-04-28T05:26:56;3.93;;;2.50;;
7989;SDS011;4040;42.848;23.034;2023-04-28T05:32:47;3.57;;;2.60;;
7989;SDS011;4040;42.848;23.034;2023-04-28T05:38:35;2.97;;;2.30;;
7989;SDS011;4040;42.848;23.034;2023-04-28T05:44:25;6.00;;;2.60;;
7989;SDS011;4040;42.848;23.034;2023-04-28T05:50:15;7.80;;;3.37;;
7989;SDS011;4040;42.848;23.034;2023-04-28T05:56:04;3.67;;;2.60;;
7989;SDS011;4040;42.848;23.034;2023-04-28T06:01:53;5.13;;;2.37;;
7989;SDS011;4040;42.848;23.034;2023-04-28T06:07:43;5.20;;;3.47;;
7989;SDS011;4040;42.848;23.034;2023-04-28T06:13:31;7.03;;;3.13;;
7989;SDS011;4040;42.848;23.034;2023-04-28T06:19:20;4.80;;;2.53;;
7989;SDS011;4040;42.848;23.034;2023-04-28T06:29:32;3.43;;;2.60;;
7989;SDS011;4040;42.848;23.034;2023-04-28T06:35:21;10.43;;;4.50;;
7989;SDS011;4040;42.848;23.034;2023-04-28T06:41:10;2.90;;;2.10;;
7989;SDS011;4040;42.848;23.034;2023-04-28T06:47:00;5.13;;;2.40;;
7989;SDS011;4040;42.848;23.034;2023-04-28T06:52:50;3.03;;;2.30;;
7989;SDS011;4040;42.848;23.034;2023-04-28T06:58:38;4.50;;;1.98;;
7989;SDS011;4040;42.848;23.034;2023-04-28T07:04:29;2.95;;;1.67;;
7989;SDS011;4040;42.848;23.034;2023-04-28T07:10:17;4.35;;;2.00;;
7989;SDS011;4040;42.848;23.034;2023-04-28T07:16:07;3.28;;;2.25;;
7989;SDS011;4040;42.848;23.034;2023-04-28T07:21:57;3.92;;;1.98;;
7989;SDS011;4040;42.848;23.034;2023-04-28T07:32:08;2.90;;;2.47;;
7989;SDS011;4040;42.848;23.034;2023-04-28T07:37:58;3.55;;;1.80;;
7989;SDS011;4040;42.848;23.034;2023-04-28T07:43:47;2.88;;;2.00;;
7989;SDS011;4040;42.848;23.034;2023-04-28T07:49:36;2.97;;;1.75;;
7989;SDS011;4040;42.848;23.034;2023-04-28T07:55:26;2.08;;;1.88;;
7989;SDS011;4040;42.848;23.034;2023-04-28T08:01:15;3.53;;;1.73;;
7989;SDS011;4040;42.848;23.034;2023-04-28T08:07:03;6.75;;;2.28;;
7989;SDS011;4040;42.848;23.034;2023-04-28T08:12:54;4.10;;;2.03;;
7989;SDS011;4040;42.848;23.034;2023-04-28T08:18:42;1.50;;;1.40;;
7989;SDS011;4040;42.848;23.034;2023-04-28T08:24:31;3.22;;;1.85;;
7989;SDS011;4040;42.848;23.034;2023-04-28T08:34:44;2.22;;;1.75;;
7989;SDS011;4040;42.848;23.034;2023-04-28T08:40:33;3.47;;;2.05;;
7989;SDS011;4040;42.848;23.034;2023-04-28T08:46:23;1.60;;;1.50;;
7989;SDS011;4040;42.848;23.034;2023-04-28T08:52:16;2.45;;;1.70;;
7989;SDS011;4040;42.848;23.034;2023-04-28T08:58:07;2.28;;;1.40;;
7989;SDS011;4040;42.848;23.034;2023-04-28T09:03:59;4.95;;;1.67;;
7989;SDS011;4040;42.848;23.034;2023-04-28T09:09:53;2.58;;;2.30;;
7989;SDS011;4040;42.848;23.034;2023-04-28T09:16:03;3.92;;;1.70;;
7989;SDS011;4040;42.848;23.034;2023-04-28T09:21:53;4.32;;;1.58;;
7989;SDS011;4040;42.848;23.034;2023-04-28T09:27:44;3.70;;;2.00;;
7989;SDS011;4040;42.848;23.034;2023-04-28T09:37:56;4.53;;;1.60;;
7989;SDS011;4040;42.848;23.034;2023-04-28T09:43:47;1.88;;;1.45;;
7989;SDS011;4040;42.848;23.034;2023-04-28T09:49:37;2.15;;;1.45;;
7989;SDS011;4040;42.848;23.034;2023-04-28T09:55:42;4.32;;;2.50;;
7989;SDS011;4040;42.848;23.034;2023-04-28T10:01:36;2.35;;;1.90;;
7989;SDS011;4040;42.848;23.034;2023-04-28T10:07:26;3.55;;;1.70;;
7989;SDS011;4040;42.848;23.034;2023-04-28T10:13:16;2.30;;;1.48;;
7989;SDS011;4040;42.848;23.034;2023-04-28T10:19:07;2.10;;;1.40;;
7989;SDS011;4040;42.848;23.034;2023-04-28T10:25:01;1.98;;;1.42;;
7989;SDS011;4040;42.848;23.034;2023-04-28T10:31:09;2.97;;;1.63;;
7989;SDS011;4040;42.848;23.034;2023-04-28T10:37:00;2.17;;;1.33;;
7989;SDS011;4040;42.848;23.034;2023-04-28T10:42:52;1.92;;;1.35;;
7989;SDS011;4040;42.848;23.034;2023-04-28T11:01:26;3.92;;;2.30;;
7989;SDS011;4040;42.848;23.034;2023-04-28T11:07:16;2.00;;;1.60;;
7989;SDS011;4040;42.848;23.034;2023-04-28T11:19:14;4.28;;;1.92;;
7989;SDS011;4040;42.848;23.034;2023-04-28T11:25:15;2.45;;;1.40;;
7989;SDS011;4040;42.848;23.034;2023-04-28T11:31:10;2.65;;;1.55;;
7989;SDS011;4040;42.848;23.034;2023-04-28T11:41:23;1.92;;;1.50;;
7989;SDS011;4040;42.848;23.034;2023-04-28T11:47:12;2.50;;;1.60;;
7989;SDS011;4040;42.848;23.034;2023-04-28T11:53:01;2.42;;;1.60;;
7989;SDS011;4040;42.848;23.034;2023-04-28T11:59:00;3.05;;;1.40;;
7989;SDS011;4040;42.848;23.034;2023-04-28T12:04:50;1.77;;;1.33;;
7989;SDS011;4040;42.848;23.034;2023-04-28T12:10:38;3.85;;;1.40;;
7989;SDS011;4040;42.848;23.034;2023-04-28T12:16:37;2.08;;;1.63;;
7989;SDS011;4040;42.848;23.034;2023-04-28T12:22:32;2.05;;;1.77;;
7989;SDS011;4040;42.848;23.034;2023-04-28T12:28:37;2.08;;;1.38;;
7989;SDS011;4040;42.848;23.034;2023-04-28T12:34:29;1.88;;;1.30;;
7989;SDS011;4040;42.848;23.034;2023-04-28T12:36:57;1.52;;;1.27;;
7989;SDS011;4040;42.848;23.034;2023-04-28T12:42:47;3.03;;;2.25;;
7989;SDS011;4040;42.848;23.034;2023-04-28T12:48:36;2.42;;;1.50;;
7989;SDS011;4040;42.848;23.034;2023-04-28T12:54:26;2.28;;;1.60;;
7989;SDS011;4040;42.848;23.034;2023-04-28T13:00:15;3.55;;;1.50;;
7989;SDS011;4040;42.848;23.034;2023-04-28T13:06:06;5.25;;;2.97;;
7989;SDS011;4040;42.848;23.034;2023-04-28T13:11:58;5.57;;;2.70;;
7989;SDS011;4040;42.848;23.034;2023-04-28T13:17:48;3.13;;;1.30;;
7989;SDS011;4040;42.848;23.034;2023-04-28T13:23:37;2.67;;;1.95;;
7989;SDS011;4040;42.848;23.034;2023-04-28T13:29:28;2.00;;;1.70;;
7989;SDS011;4040;42.848;23.034;2023-04-28T13:35:16;4.90;;;1.63;;
7989;SDS011;4040;42.848;23.034;2023-04-28T13:41:06;2.97;;;2.10;;
7989;SDS011;4040;42.848;23.034;2023-04-28T13:46:56;2.22;;;1.38;;
7989;SDS011;4040;42.848;23.034;2023-04-28T13:52:45;5.45;;;3.92;;
7989;SDS011;4040;42.848;23.034;2023-04-28T13:58:33;5.85;;;2.75;;
7989;SDS011;4040;42.848;23.034;2023-04-28T14:04:24;1.73;;;1.63;;
7989;SDS011;4040;42.848;23.034;2023-04-28T14:10:12;2.65;;;1.50;;
7989;SDS011;4040;42.848;23.034;2023-04-28T14:16:01;4.95;;;1.90;;
7989;SDS011;4040;42.848;23.034;2023-04-28T14:21:51;3.83;;;1.73;;
7989;SDS011;4040;42.848;23.034;2023-04-28T14:27:40;2.60;;;1.75;;
7989;SDS011;4040;42.848;23.034;2023-04-28T14:33:29;2.92;;;2.03;;
7989;SDS011;4040;42.848;23.034;2023-04-28T14:43:41;2.85;;;1.70;;
7989;SDS011;4040;42.848;23.034;2023-04-28T14:49:30;5.15;;;2.00;;
7989;SDS011;4040;42.848;23.034;2023-04-28T14:55:20;4.57;;;2.10;;
7989;SDS011;4040;42.848;23.034;2023-04-28T15:01:10;3.67;;;1.50;;
7989;SDS011;4040;42.848;23.034;2023-04-28T15:06:58;3.97;;;2.47;;
7989;SDS011;4040;42.848;23.034;2023-04-28T15:12:47;3.22;;;2.92;;
7989;SDS011;4040;42.848;23.034;2023-04-28T15:18:38;2.13;;;1.63;;
7989;SDS011;4040;42.848;23.034;2023-04-28T15:24:26;2.85;;;1.88;;
7989;SDS011;4040;42.848;23.034;2023-04-28T15:30:15;5.38;;;2.40;;
7989;SDS011;4040;42.848;23.034;2023-04-28T15:36:05;2.63;;;1.85;;
7989;SDS011;4040;42.848;23.034;2023-04-28T15:46:17;6.50;;;3.35;;
7989;SDS011;4040;42.848;23.034;2023-04-28T15:52:07;13.07;;;6.65;;
7989;SDS011;4040;42.848;23.034;2023-04-28T15:57:55;3.67;;;2.40;;
7989;SDS011;4040;42.848;23.034;2023-04-28T16:03:44;2.25;;;1.40;;
7989;SDS011;4040;42.848;23.034;2023-04-28T16:09:35;2.97;;;2.33;;
7989;SDS011;4040;42.848;23.034;2023-04-28T16:15:23;2.20;;;1.92;;
7989;SDS011;4040;42.848;23.034;2023-04-28T16:21:12;2.63;;;1.90;;
7989;SDS011;4040;42.848;23.034;2023-04-28T16:27:04;1.50;;;1.40;;
7989;SDS011;4040;42.848;23.034;2023-04-28T16:32:52;4.65;;;2.13;;
7989;SDS011;4040;42.848;23.034;2023-04-28T16:38:44;2.63;;;1.92;;
7989;SDS011;4040;42.848;23.034;2023-04-28T16:48:55;3.22;;;1.70;;
7989;SDS011;4040;42.848;23.034;2023-04-28T16:54:45;5.10;;;2.60;;
7989;SDS011;4040;42.848;23.034;2023-04-28T17:00:33;21.70;;;8.57;;
7989;SDS011;4040;42.848;23.034;2023-04-28T17:06:23;8.37;;;4.97;;
7989;SDS011;4040;42.848;23.034;2023-04-28T17:12:14;5.83;;;4.03;;
7989;SDS011;4040;42.848;23.034;2023-04-28T17:18:03;2.63;;;1.70;;
7989;SDS011;4040;42.848;23.034;2023-04-28T17:23:53;3.93;;;1.87;;
7989;SDS011;4040;42.848;23.034;2023-04-28T17:29:43;3.00;;;2.27;;
7989;SDS011;4040;42.848;23.034;2023-04-28T17:35:31;2.97;;;1.77;;
7989;SDS011;4040;42.848;23.034;2023-04-28T17:41:22;3.87;;;2.03;;
7989;SDS011;4040;42.848;23.034;2023-04-28T17:51:32;3.80;;;1.90;;
7989;SDS011;4040;42.848;23.034;2023-04-28T17:57:23;3.90;;;2.50;;
7989;SDS011;4040;42.848;23.034;2023-04-28T18:03:12;2.63;;;2.13;;
7989;SDS011;4040;42.848;23.034;2023-04-28T18:09:00;5.27;;;3.80;;
7989;SDS011;4040;42.848;23.034;2023-04-28T18:14:51;5.13;;;3.23;;
7989;SDS011;4040;42.848;23.034;2023-04-28T18:20:40;5.67;;;3.70;;
7989;SDS011;4040;42.848;23.034;2023-04-28T18:26:29;5.30;;;3.20;;
7989;SDS011;4040;42.848;23.034;2023-04-28T18:32:19;6.30;;;3.30;;
7989;SDS011;4040;42.848;23.034;2023-04-28T18:38:07;6.53;;;3.60;;
7989;SDS011;4040;42.848;23.034;2023-04-28T18:43:56;8.23;;;3.90;;
7989;SDS011;4040;42.848;23.034;2023-04-28T18:54:09;37.67;;;15.10;;
7989;SDS011;4040;42.848;23.034;2023-04-28T18:59:57;24.27;;;8.77;;
7989;SDS011;4040;42.848;23.034;2023-04-28T19:05:46;45.50;;;17.30;;
7989;SDS011;4040;42.848;23.034;2023-04-28T19:11:37;31.97;;;12.50;;
7989;SDS011;4040;42.848;23.034;2023-04-28T19:17:26;52.17;;;20.80;;
7989;SDS011;4040;42.848;23.034;2023-04-28T19:23:15;59.40;;;20.03;;
7989;SDS011;4040;42.848;23.034;2023-04-28T19:29:05;10.70;;;3.63;;
7989;SDS011;4040;42.848;23.034;2023-04-28T19:34:54;21.63;;;10.97;;
7989;SDS011;4040;42.848;23.034;2023-04-28T19:40:42;17.27;;;10.17;;
7989;SDS011;4040;42.848;23.034;2023-04-28T19:46:33;32.10;;;13.40;;
7989;SDS011;4040;42.848;23.034;2023-04-28T19:56:44;9.47;;;5.17;;
7989;SDS011;4040;42.848;23.034;2023-04-28T20:02:35;26.17;;;11.43;;
7989;SDS011;4040;42.848;23.034;2023-04-28T20:08:23;14.60;;;6.67;;
7989;SDS011;4040;42.848;23.034;2023-04-28T20:14:13;20.20;;;9.67;;
7989;SDS011;4040;42.848;23.034;2023-04-28T20:20:04;18.10;;;9.37;;
7989;SDS011;4040;42.848;23.034;2023-04-28T20:25:53;5.70;;;3.70;;
7989;SDS011;4040;42.848;23.034;2023-04-28T20:31:42;8.13;;;4.67;;
7989;SDS011;4040;42.848;23.034;2023-04-28T20:37:32;12.20;;;5.60;;
7989;SDS011;4040;42.848;23.034;2023-04-28T20:43:21;9.10;;;4.00;;
7989;SDS011;4040;42.848;23.034;2023-04-28T20:49:10;4.97;;;2.60;;
7989;SDS011;4040;42.848;23.034;2023-04-28T20:59:22;8.07;;;4.17;;
7989;SDS011;4040;42.848;23.034;2023-04-28T21:05:11;4.13;;;2.80;;
7989;SDS011;4040;42.848;23.034;2023-04-28T21:11:00;6.73;;;3.80;;
7989;SDS011;4040;42.848;23.034;2023-04-28T21:16:50;11.17;;;5.10;;
7989;SDS011;4040;42.848;23.034;2023-04-28T21:22:39;7.80;;;4.00;;
7989;SDS011;4040;42.848;23.034;2023-04-28T21:28:28;12.57;;;6.10;;
7989;SDS011;4040;42.848;23.034;2023-04-28T21:34:21;22.67;;;6.87;;
7989;SDS011;4040;42.848;23.034;2023-04-28T21:40:10;22.97;;;10.27;;
7989;SDS011;4040;42.848;23.034;2023-04-28T21:45:59;20.30;;;8.30;;
7989;SDS011;4040;42.848;23.034;2023-04-28T21:51:49;19.07;;;8.10;;
7989;SDS011;4040;42.848;23.034;2023-04-28T22:08:28;14.00;;;6.07;;
7989;SDS011;4040;42.848;23.034;2023-04-28T22:14:17;8.03;;;4.57;;
7989;SDS011;4040;42.848;23.034;2023-04-28T22:20:06;20.83;;;9.33;;
7989;SDS011;4040;42.848;23.034;2023-04-28T22:25:57;7.07;;;3.13;;
7989;SDS011;4040;42.848;23.034;2023-04-28T22:31:46;8.03;;;4.30;;
7989;SDS011;4040;42.848;23.034;2023-04-28T22:37:35;6.43;;;4.10;;
7989;SDS011;4040;42.848;23.034;2023-04-28T22:43:26;8.37;;;5.50;;
7989;SDS011;4040;42.848;23.034;2023-04-28T22:49:15;11.27;;;4.67;;
7989;SDS011;4040;42.848;23.034;2023-04-28T22:55:07;11.30;;;3.77;;
7989;SDS011;4040;42.848;23.034;2023-04-28T23:01:00;4.63;;;2.67;;
7989;SDS011;4040;42.848;23.034;2023-04-28T23:06:49;6.20;;;3.57;;
7989;SDS011;4040;42.848;23.034;2023-04-28T23:12:38;10.47;;;4.57;;
7989;SDS011;4040;42.848;23.034;2023-04-28T23:18:30;6.20;;;4.20;;
7989;SDS011;4040;42.848;23.034;2023-04-28T23:24:20;4.70;;;2.33;;
7989;SDS011;4040;42.848;23.034;2023-04-28T23:30:09;5.07;;;2.87;;
7989;SDS011;4040;42.848;23.034;2023-04-28T23:36:00;3.90;;;2.50;;
7989;SDS011;4040;42.848;23.034;2023-04-28T23:41:48;2.77;;;2.23;;
7989;SDS011;4040;42.848;23.034;2023-04-28T23:47:38;2.73;;;2.40;;
7989;SDS011;4040;42.848;23.034;2023-04-28T23:53:29;3.40;;;2.30;;
7989;SDS011;4040;42.848;23.034;2023-04-28T23:59:17;2.37;;;2.00;;
